sensor_id;sensor_type;location;lat;lon;timestamp;temperature;humidity
20654;DHT22;21083;50.898;4.902;2022-10-16T00:01:41;15.40;99.90
20654;DHT22;21083;50.898;4.902;2022-10-16T00:04:08;15.40;99.90
20654;DHT22;21083;50.898;4.902;2022-10-16T00:06:35;15.40;99.90
20654;DHT22;21083;50.898;4.902;2022-10-16T00:09:04;15.30;99.90
20654;DHT22;21083;50.898;4.902;2022-10-16T00:11:33;15.20;99.90
20654;DHT22;21083;50.898;4.902;2022-10-16T00:14:04;15.10;99.90
20654;DHT22;21083;50.898;4.902;2022-10-16T00:16:32;15.10;99.90
20654;DHT22;21083;50.898;4.902;2022-10-16T00:18:59;15.10;99.90
20654;DHT22;21083;50.898;4.902;2022-10-16T00:21:28;15.00;99.90
20654;DHT22;21083;50.898;4.902;2022-10-16T00:23:57;15.10;99.90
20654;DHT22;21083;50.898;4.902;2022-10-16T00:26:27;15.20;99.90
20654;DHT22;21083;50.898;4.902;2022-10-16T00:28:54;15.20;99.90
20654;DHT22;21083;50.898;4.902;2022-10-16T00:31:22;15.20;99.90
20654;DHT22;21083;50.898;4.902;2022-10-16T00:33:50;15.30;99.90
20654;DHT22;21083;50.898;4.902;2022-10-16T00:36:19;15.20;99.90
20654;DHT22;21083;50.898;4.902;2022-10-16T00:38:47;15.10;99.90
20654;DHT22;21083;50.898;4.902;2022-10-16T00:41:15;15.10;99.90
20654;DHT22;21083;50.898;4.902;2022-10-16T00:43:46;15.00;99.90
20654;DHT22;21083;50.898;4.902;2022-10-16T00:46:16;14.90;99.90
20654;DHT22;21083;50.898;4.902;2022-10-16T00:48:48;14.90;99.90
20654;DHT22;21083;50.898;4.902;2022-10-16T00:51:19;14.90;99.90
20654;DHT22;21083;50.898;4.902;2022-10-16T00:53:48;14.90;99.90
20654;DHT22;21083;50.898;4.902;2022-10-16T00:56:16;14.80;99.90
20654;DHT22;21083;50.898;4.902;2022-10-16T00:58:44;14.80;99.90
20654;DHT22;21083;50.898;4.902;2022-10-16T01:01:11;14.70;99.90
20654;DHT22;21083;50.898;4.902;2022-10-16T01:03:38;14.70;99.90
20654;DHT22;21083;50.898;4.902;2022-10-16T01:06:19;14.60;99.90
20654;DHT22;21083;50.898;4.902;2022-10-16T01:08:57;14.70;99.90
20654;DHT22;21083;50.898;4.902;2022-10-16T01:11:32;14.70;99.90
20654;DHT22;21083;50.898;4.902;2022-10-16T01:14:07;14.60;99.90
20654;DHT22;21083;50.898;4.902;2022-10-16T01:16:43;14.60;99.90
20654;DHT22;21083;50.898;4.902;2022-10-16T01:19:15;14.60;99.90
20654;DHT22;21083;50.898;4.902;2022-10-16T01:21:45;14.60;99.90
20654;DHT22;21083;50.898;4.902;2022-10-16T01:24:21;14.60;99.90
20654;DHT22;21083;50.898;4.902;2022-10-16T01:27:14;14.60;99.90
20654;DHT22;21083;50.898;4.902;2022-10-16T01:29:49;14.60;99.90
20654;DHT22;21083;50.898;4.902;2022-10-16T01:32:24;14.60;99.90
20654;DHT22;21083;50.898;4.902;2022-10-16T01:34:57;14.60;99.90
20654;DHT22;21083;50.898;4.902;2022-10-16T01:37:32;14.50;99.90
20654;DHT22;21083;50.898;4.902;2022-10-16T01:40:00;14.40;99.90
20654;DHT22;21083;50.898;4.902;2022-10-16T01:42:35;14.50;99.90
20654;DHT22;21083;50.898;4.902;2022-10-16T01:45:05;14.60;99.90
20654;DHT22;21083;50.898;4.902;2022-10-16T01:47:33;14.50;99.90
20654;DHT22;21083;50.898;4.902;2022-10-16T01:50:02;14.50;99.90
20654;DHT22;21083;50.898;4.902;2022-10-16T01:52:32;14.50;99.90
20654;DHT22;21083;50.898;4.902;2022-10-16T01:55:03;14.50;99.90
20654;DHT22;21083;50.898;4.902;2022-10-16T01:57:34;14.50;99.90
20654;DHT22;21083;50.898;4.902;2022-10-16T02:00:07;14.60;99.90
20654;DHT22;21083;50.898;4.902;2022-10-16T02:02:35;14.60;99.90
20654;DHT22;21083;50.898;4.902;2022-10-16T02:05:10;14.50;99.90
20654;DHT22;21083;50.898;4.902;2022-10-16T02:07:39;14.40;99.90
20654;DHT22;21083;50.898;4.902;2022-10-16T02:10:08;14.40;99.90
20654;DHT22;21083;50.898;4.902;2022-10-16T02:12:38;14.50;99.90
20654;DHT22;21083;50.898;4.902;2022-10-16T02:15:08;14.40;99.90
20654;DHT22;21083;50.898;4.902;2022-10-16T02:17:35;14.30;99.90
20654;DHT22;21083;50.898;4.902;2022-10-16T02:20:03;14.40;99.90
20654;DHT22;21083;50.898;4.902;2022-10-16T02:22:33;14.30;99.90
20654;DHT22;21083;50.898;4.902;2022-10-16T02:25:06;14.50;99.90
20654;DHT22;21083;50.898;4.902;2022-10-16T02:27:38;14.40;99.90
20654;DHT22;21083;50.898;4.902;2022-10-16T02:30:09;14.40;99.90
20654;DHT22;21083;50.898;4.902;2022-10-16T02:32:41;14.50;99.90
20654;DHT22;21083;50.898;4.902;2022-10-16T02:35:09;14.60;99.90
20654;DHT22;21083;50.898;4.902;2022-10-16T02:37:37;14.60;99.90
20654;DHT22;21083;50.898;4.902;2022-10-16T02:40:06;14.60;99.90
20654;DHT22;21083;50.898;4.902;2022-10-16T02:42:35;14.50;99.90
20654;DHT22;21083;50.898;4.902;2022-10-16T02:45:04;14.50;99.90
20654;DHT22;21083;50.898;4.902;2022-10-16T02:47:31;14.60;99.90
20654;DHT22;21083;50.898;4.902;2022-10-16T02:49:58;14.40;99.90
20654;DHT22;21083;50.898;4.902;2022-10-16T02:52:25;14.40;99.90
20654;DHT22;21083;50.898;4.902;2022-10-16T02:54:52;14.50;99.90
20654;DHT22;21083;50.898;4.902;2022-10-16T02:57:19;14.40;99.90
20654;DHT22;21083;50.898;4.902;2022-10-16T02:59:46;14.50;99.90
20654;DHT22;21083;50.898;4.902;2022-10-16T03:02:14;14.50;99.90
20654;DHT22;21083;50.898;4.902;2022-10-16T03:04:41;14.40;99.90
20654;DHT22;21083;50.898;4.902;2022-10-16T03:07:08;14.30;99.90
20654;DHT22;21083;50.898;4.902;2022-10-16T03:09:35;14.30;99.90
20654;DHT22;21083;50.898;4.902;2022-10-16T03:12:02;14.40;99.90
20654;DHT22;21083;50.898;4.902;2022-10-16T03:14:29;14.50;99.90
20654;DHT22;21083;50.898;4.902;2022-10-16T03:16:56;14.50;99.90
20654;DHT22;21083;50.898;4.902;2022-10-16T03:19:24;14.50;99.90
20654;DHT22;21083;50.898;4.902;2022-10-16T03:21:51;14.50;99.90
20654;DHT22;21083;50.898;4.902;2022-10-16T03:24:18;14.40;99.90
20654;DHT22;21083;50.898;4.902;2022-10-16T03:26:44;14.50;99.90
20654;DHT22;21083;50.898;4.902;2022-10-16T03:29:11;14.60;99.90
20654;DHT22;21083;50.898;4.902;2022-10-16T03:31:38;14.50;99.90
20654;DHT22;21083;50.898;4.902;2022-10-16T03:34:05;14.40;99.90
20654;DHT22;21083;50.898;4.902;2022-10-16T03:36:33;14.40;99.90
20654;DHT22;21083;50.898;4.902;2022-10-16T03:39:00;14.50;99.90
20654;DHT22;21083;50.898;4.902;2022-10-16T03:41:27;14.60;99.90
20654;DHT22;21083;50.898;4.902;2022-10-16T03:43:54;14.70;99.90
20654;DHT22;21083;50.898;4.902;2022-10-16T03:46:21;14.60;99.90
20654;DHT22;21083;50.898;4.902;2022-10-16T03:48:47;14.50;99.90
20654;DHT22;21083;50.898;4.902;2022-10-16T03:51:14;14.50;99.90
20654;DHT22;21083;50.898;4.902;2022-10-16T03:53:42;14.50;99.90
20654;DHT22;21083;50.898;4.902;2022-10-16T03:56:09;14.50;99.90
20654;DHT22;21083;50.898;4.902;2022-10-16T03:58:36;14.50;99.90
20654;DHT22;21083;50.898;4.902;2022-10-16T04:01:03;14.50;99.90
20654;DHT22;21083;50.898;4.902;2022-10-16T04:03:30;14.40;99.90
20654;DHT22;21083;50.898;4.902;2022-10-16T04:05:57;14.40;99.90
20654;DHT22;21083;50.898;4.902;2022-10-16T04:08:24;14.50;99.90
20654;DHT22;21083;50.898;4.902;2022-10-16T04:10:52;14.50;99.90
20654;DHT22;21083;50.898;4.902;2022-10-16T04:13:19;14.50;99.90
20654;DHT22;21083;50.898;4.902;2022-10-16T04:15:46;14.60;99.90
20654;DHT22;21083;50.898;4.902;2022-10-16T04:18:13;14.50;99.90
20654;DHT22;21083;50.898;4.902;2022-10-16T04:20:40;14.50;99.90
20654;DHT22;21083;50.898;4.902;2022-10-16T04:23:07;14.50;99.90
20654;DHT22;21083;50.898;4.902;2022-10-16T04:25:34;14.60;99.90
20654;DHT22;21083;50.898;4.902;2022-10-16T04:28:03;14.50;99.90
20654;DHT22;21083;50.898;4.902;2022-10-16T04:30:29;14.60;99.90
20654;DHT22;21083;50.898;4.902;2022-10-16T04:32:56;14.60;99.90
20654;DHT22;21083;50.898;4.902;2022-10-16T04:35:23;14.50;99.90
20654;DHT22;21083;50.898;4.902;2022-10-16T04:37:50;14.60;99.90
20654;DHT22;21083;50.898;4.902;2022-10-16T04:40:17;14.60;99.90
20654;DHT22;21083;50.898;4.902;2022-10-16T04:42:44;14.50;99.90
20654;DHT22;21083;50.898;4.902;2022-10-16T04:45:12;14.50;99.90
20654;DHT22;21083;50.898;4.902;2022-10-16T04:47:39;14.50;99.90
20654;DHT22;21083;50.898;4.902;2022-10-16T04:50:06;14.50;99.90
20654;DHT22;21083;50.898;4.902;2022-10-16T04:52:33;14.60;99.90
20654;DHT22;21083;50.898;4.902;2022-10-16T04:55:00;14.60;99.90
20654;DHT22;21083;50.898;4.902;2022-10-16T04:57:28;14.40;99.90
20654;DHT22;21083;50.898;4.902;2022-10-16T04:59:56;14.40;99.90
20654;DHT22;21083;50.898;4.902;2022-10-16T05:02:24;14.40;99.90
20654;DHT22;21083;50.898;4.902;2022-10-16T05:04:51;14.50;99.90
20654;DHT22;21083;50.898;4.902;2022-10-16T05:07:18;14.40;99.90
20654;DHT22;21083;50.898;4.902;2022-10-16T05:09:45;14.40;99.90
20654;DHT22;21083;50.898;4.902;2022-10-16T05:12:12;14.30;99.90
20654;DHT22;21083;50.898;4.902;2022-10-16T05:14:39;14.30;99.90
20654;DHT22;21083;50.898;4.902;2022-10-16T05:17:06;14.40;99.90
20654;DHT22;21083;50.898;4.902;2022-10-16T05:19:34;14.40;99.90
20654;DHT22;21083;50.898;4.902;2022-10-16T05:22:01;14.40;99.90
20654;DHT22;21083;50.898;4.902;2022-10-16T05:24:28;14.30;99.90
20654;DHT22;21083;50.898;4.902;2022-10-16T05:26:55;14.30;99.90
20654;DHT22;21083;50.898;4.902;2022-10-16T05:29:22;14.20;99.90
20654;DHT22;21083;50.898;4.902;2022-10-16T05:31:51;14.30;99.90
20654;DHT22;21083;50.898;4.902;2022-10-16T05:34:18;14.30;99.90
20654;DHT22;21083;50.898;4.902;2022-10-16T05:36:46;14.30;99.90
20654;DHT22;21083;50.898;4.902;2022-10-16T05:39:14;14.40;99.90
20654;DHT22;21083;50.898;4.902;2022-10-16T05:41:41;14.30;99.90
20654;DHT22;21083;50.898;4.902;2022-10-16T05:44:08;14.40;99.90
20654;DHT22;21083;50.898;4.902;2022-10-16T05:46:35;14.40;99.90
20654;DHT22;21083;50.898;4.902;2022-10-16T05:49:02;14.30;99.90
20654;DHT22;21083;50.898;4.902;2022-10-16T05:51:29;14.20;99.90
20654;DHT22;21083;50.898;4.902;2022-10-16T05:53:58;14.10;99.90
20654;DHT22;21083;50.898;4.902;2022-10-16T05:56:24;14.10;99.90
20654;DHT22;21083;50.898;4.902;2022-10-16T05:58:51;14.20;99.90
20654;DHT22;21083;50.898;4.902;2022-10-16T06:01:19;14.20;99.90
20654;DHT22;21083;50.898;4.902;2022-10-16T06:03:49;14.30;99.90
20654;DHT22;21083;50.898;4.902;2022-10-16T06:06:17;14.20;99.90
20654;DHT22;21083;50.898;4.902;2022-10-16T06:08:46;14.20;99.90
20654;DHT22;21083;50.898;4.902;2022-10-16T06:11:16;14.10;99.90
20654;DHT22;21083;50.898;4.902;2022-10-16T06:13:43;14.30;99.90
20654;DHT22;21083;50.898;4.902;2022-10-16T06:16:12;14.10;99.90
20654;DHT22;21083;50.898;4.902;2022-10-16T06:18:39;14.20;99.90
20654;DHT22;21083;50.898;4.902;2022-10-16T06:21:11;14.20;99.90
20654;DHT22;21083;50.898;4.902;2022-10-16T06:23:38;14.20;99.90
20654;DHT22;21083;50.898;4.902;2022-10-16T06:26:06;14.20;99.90
20654;DHT22;21083;50.898;4.902;2022-10-16T06:28:35;14.20;99.90
20654;DHT22;21083;50.898;4.902;2022-10-16T06:31:03;14.00;99.90
20654;DHT22;21083;50.898;4.902;2022-10-16T06:33:30;14.00;99.90
20654;DHT22;21083;50.898;4.902;2022-10-16T06:36:00;14.00;99.90
20654;DHT22;21083;50.898;4.902;2022-10-16T06:38:27;14.00;99.90
20654;DHT22;21083;50.898;4.902;2022-10-16T06:40:55;14.10;99.90
20654;DHT22;21083;50.898;4.902;2022-10-16T06:43:22;14.20;99.90
20654;DHT22;21083;50.898;4.902;2022-10-16T06:45:52;14.20;99.90
20654;DHT22;21083;50.898;4.902;2022-10-16T06:48:20;14.20;99.90
20654;DHT22;21083;50.898;4.902;2022-10-16T06:50:56;14.30;99.90
20654;DHT22;21083;50.898;4.902;2022-10-16T06:53:23;14.40;99.90
20654;DHT22;21083;50.898;4.902;2022-10-16T06:55:50;14.40;99.90
20654;DHT22;21083;50.898;4.902;2022-10-16T06:58:17;14.30;99.90
20654;DHT22;21083;50.898;4.902;2022-10-16T07:00:44;14.30;99.90
20654;DHT22;21083;50.898;4.902;2022-10-16T07:03:13;14.20;99.90
20654;DHT22;21083;50.898;4.902;2022-10-16T07:05:40;14.20;99.90
20654;DHT22;21083;50.898;4.902;2022-10-16T07:08:07;14.20;99.90
20654;DHT22;21083;50.898;4.902;2022-10-16T07:10:35;14.30;99.90
20654;DHT22;21083;50.898;4.902;2022-10-16T07:13:02;14.40;99.90
20654;DHT22;21083;50.898;4.902;2022-10-16T07:15:29;14.40;99.90
20654;DHT22;21083;50.898;4.902;2022-10-16T07:17:55;14.40;99.90
20654;DHT22;21083;50.898;4.902;2022-10-16T07:20:24;14.30;99.90
20654;DHT22;21083;50.898;4.902;2022-10-16T07:22:51;14.30;99.90
20654;DHT22;21083;50.898;4.902;2022-10-16T07:25:18;14.40;99.90
20654;DHT22;21083;50.898;4.902;2022-10-16T07:27:45;14.40;99.90
20654;DHT22;21083;50.898;4.902;2022-10-16T07:30:12;14.50;99.90
20654;DHT22;21083;50.898;4.902;2022-10-16T07:32:39;14.60;99.90
20654;DHT22;21083;50.898;4.902;2022-10-16T07:35:07;14.50;99.90
20654;DHT22;21083;50.898;4.902;2022-10-16T07:37:35;14.50;99.90
20654;DHT22;21083;50.898;4.902;2022-10-16T07:40:02;14.50;99.90
20654;DHT22;21083;50.898;4.902;2022-10-16T07:42:29;14.70;99.90
20654;DHT22;21083;50.898;4.902;2022-10-16T07:44:56;14.70;99.90
20654;DHT22;21083;50.898;4.902;2022-10-16T07:47:23;14.70;99.90
20654;DHT22;21083;50.898;4.902;2022-10-16T07:49:50;14.70;99.90
20654;DHT22;21083;50.898;4.902;2022-10-16T07:52:16;14.70;99.90
20654;DHT22;21083;50.898;4.902;2022-10-16T07:54:45;14.80;99.90
20654;DHT22;21083;50.898;4.902;2022-10-16T07:57:11;14.80;99.90
20654;DHT22;21083;50.898;4.902;2022-10-16T07:59:44;14.90;99.90
20654;DHT22;21083;50.898;4.902;2022-10-16T08:02:11;14.90;99.90
20654;DHT22;21083;50.898;4.902;2022-10-16T08:04:38;15.00;99.90
20654;DHT22;21083;50.898;4.902;2022-10-16T08:07:06;15.10;99.90
20654;DHT22;21083;50.898;4.902;2022-10-16T08:09:33;15.10;99.90
20654;DHT22;21083;50.898;4.902;2022-10-16T08:12:01;15.10;99.90
20654;DHT22;21083;50.898;4.902;2022-10-16T08:14:29;15.20;99.90
20654;DHT22;21083;50.898;4.902;2022-10-16T08:16:56;15.20;99.90
20654;DHT22;21083;50.898;4.902;2022-10-16T08:19:23;15.20;99.90
20654;DHT22;21083;50.898;4.902;2022-10-16T08:21:50;15.20;99.90
20654;DHT22;21083;50.898;4.902;2022-10-16T08:24:21;15.30;99.90
20654;DHT22;21083;50.898;4.902;2022-10-16T08:26:48;15.40;99.90
20654;DHT22;21083;50.898;4.902;2022-10-16T08:29:16;15.50;99.90
20654;DHT22;21083;50.898;4.902;2022-10-16T08:31:43;15.50;99.90
20654;DHT22;21083;50.898;4.902;2022-10-16T08:34:10;15.60;99.90
20654;DHT22;21083;50.898;4.902;2022-10-16T08:36:37;15.70;99.90
20654;DHT22;21083;50.898;4.902;2022-10-16T08:39:04;15.60;99.90
20654;DHT22;21083;50.898;4.902;2022-10-16T08:45:11;15.80;99.90
20654;DHT22;21083;50.898;4.902;2022-10-16T08:47:49;15.80;99.90
20654;DHT22;21083;50.898;4.902;2022-10-16T08:50:22;15.80;99.90
20654;DHT22;21083;50.898;4.902;2022-10-16T08:52:51;15.90;99.90
20654;DHT22;21083;50.898;4.902;2022-10-16T08:55:29;16.00;99.90
20654;DHT22;21083;50.898;4.902;2022-10-16T08:57:57;16.10;99.90
20654;DHT22;21083;50.898;4.902;2022-10-16T09:00:26;16.10;99.90
20654;DHT22;21083;50.898;4.902;2022-10-16T09:03:00;16.20;99.90
20654;DHT22;21083;50.898;4.902;2022-10-16T09:05:45;16.30;99.90
20654;DHT22;21083;50.898;4.902;2022-10-16T09:08:17;16.30;99.90
20654;DHT22;21083;50.898;4.902;2022-10-16T09:10:56;16.30;99.90
20654;DHT22;21083;50.898;4.902;2022-10-16T09:13:28;16.30;99.90
20654;DHT22;21083;50.898;4.902;2022-10-16T09:16:04;16.50;99.90
20654;DHT22;21083;50.898;4.902;2022-10-16T09:18:43;16.50;99.90
20654;DHT22;21083;50.898;4.902;2022-10-16T09:21:15;16.50;99.90
20654;DHT22;21083;50.898;4.902;2022-10-16T09:23:43;16.60;99.90
20654;DHT22;21083;50.898;4.902;2022-10-16T09:26:13;16.70;99.90
20654;DHT22;21083;50.898;4.902;2022-10-16T09:28:40;16.80;99.90
20654;DHT22;21083;50.898;4.902;2022-10-16T09:31:15;17.00;99.90
20654;DHT22;21083;50.898;4.902;2022-10-16T09:33:44;17.10;99.90
20654;DHT22;21083;50.898;4.902;2022-10-16T09:36:13;17.20;99.90
20654;DHT22;21083;50.898;4.902;2022-10-16T09:38:40;17.30;99.90
20654;DHT22;21083;50.898;4.902;2022-10-16T09:41:16;17.40;99.90
20654;DHT22;21083;50.898;4.902;2022-10-16T09:43:49;17.60;99.90
20654;DHT22;21083;50.898;4.902;2022-10-16T09:46:26;17.70;99.90
20654;DHT22;21083;50.898;4.902;2022-10-16T09:48:56;17.90;99.90
20654;DHT22;21083;50.898;4.902;2022-10-16T09:51:25;18.00;99.90
20654;DHT22;21083;50.898;4.902;2022-10-16T09:53:56;18.10;99.90
20654;DHT22;21083;50.898;4.902;2022-10-16T09:56:25;18.20;99.90
20654;DHT22;21083;50.898;4.902;2022-10-16T09:58:54;18.30;99.90
20654;DHT22;21083;50.898;4.902;2022-10-16T10:01:24;18.40;99.90
20654;DHT22;21083;50.898;4.902;2022-10-16T10:03:56;18.50;99.90
20654;DHT22;21083;50.898;4.902;2022-10-16T10:06:29;18.60;99.90
20654;DHT22;21083;50.898;4.902;2022-10-16T10:09:14;18.60;99.90
20654;DHT22;21083;50.898;4.902;2022-10-16T10:11:48;19.00;99.90
20654;DHT22;21083;50.898;4.902;2022-10-16T10:14:21;19.30;99.90
20654;DHT22;21083;50.898;4.902;2022-10-16T10:16:51;19.60;99.90
20654;DHT22;21083;50.898;4.902;2022-10-16T10:19:19;19.70;99.90
20654;DHT22;21083;50.898;4.902;2022-10-16T10:21:47;19.90;99.90
20654;DHT22;21083;50.898;4.902;2022-10-16T10:24:16;20.00;99.90
20654;DHT22;21083;50.898;4.902;2022-10-16T10:26:50;19.90;99.90
20654;DHT22;21083;50.898;4.902;2022-10-16T10:29:36;19.90;99.90
20654;DHT22;21083;50.898;4.902;2022-10-16T10:32:19;20.10;99.90
20654;DHT22;21083;50.898;4.902;2022-10-16T10:35:05;20.40;99.90
20654;DHT22;21083;50.898;4.902;2022-10-16T10:37:47;20.70;99.90
20654;DHT22;21083;50.898;4.902;2022-10-16T10:40:28;21.00;99.90
20654;DHT22;21083;50.898;4.902;2022-10-16T10:43:00;21.10;99.90
20654;DHT22;21083;50.898;4.902;2022-10-16T10:45:38;20.90;99.90
20654;DHT22;21083;50.898;4.902;2022-10-16T10:48:25;20.80;99.90
20654;DHT22;21083;50.898;4.902;2022-10-16T10:50:59;20.60;99.90
20654;DHT22;21083;50.898;4.902;2022-10-16T10:53:39;20.40;99.90
20654;DHT22;21083;50.898;4.902;2022-10-16T10:56:15;20.20;99.90
20654;DHT22;21083;50.898;4.902;2022-10-16T10:58:57;20.00;99.90
20654;DHT22;21083;50.898;4.902;2022-10-16T11:01:35;20.10;99.90
20654;DHT22;21083;50.898;4.902;2022-10-16T11:04:28;20.20;99.90
20654;DHT22;21083;50.898;4.902;2022-10-16T11:07:02;20.40;99.90
20654;DHT22;21083;50.898;4.902;2022-10-16T11:09:33;20.90;99.90
20654;DHT22;21083;50.898;4.902;2022-10-16T11:12:06;21.40;99.90
20654;DHT22;21083;50.898;4.902;2022-10-16T11:14:38;21.50;99.90
20654;DHT22;21083;50.898;4.902;2022-10-16T11:17:10;21.50;99.90
20654;DHT22;21083;50.898;4.902;2022-10-16T11:19:44;21.40;99.90
20654;DHT22;21083;50.898;4.902;2022-10-16T11:22:17;21.40;99.90
20654;DHT22;21083;50.898;4.902;2022-10-16T11:24:48;21.10;99.90
20654;DHT22;21083;50.898;4.902;2022-10-16T11:27:19;20.60;99.90
20654;DHT22;21083;50.898;4.902;2022-10-16T11:29:53;20.60;99.90
20654;DHT22;21083;50.898;4.902;2022-10-16T11:32:27;20.70;99.90
20654;DHT22;21083;50.898;4.902;2022-10-16T11:35:02;20.80;99.90
20654;DHT22;21083;50.898;4.902;2022-10-16T11:37:36;20.70;99.90
20654;DHT22;21083;50.898;4.902;2022-10-16T11:40:17;20.70;99.90
20654;DHT22;21083;50.898;4.902;2022-10-16T11:42:50;20.50;99.90
20654;DHT22;21083;50.898;4.902;2022-10-16T11:45:24;21.00;99.90
20654;DHT22;21083;50.898;4.902;2022-10-16T11:47:58;21.70;99.90
20654;DHT22;21083;50.898;4.902;2022-10-16T11:50:34;21.90;99.90
20654;DHT22;21083;50.898;4.902;2022-10-16T11:53:04;21.70;99.90
20654;DHT22;21083;50.898;4.902;2022-10-16T11:55:37;21.40;99.90
20654;DHT22;21083;50.898;4.902;2022-10-16T11:58:07;21.70;99.90
20654;DHT22;21083;50.898;4.902;2022-10-16T12:00:40;21.90;99.90
20654;DHT22;21083;50.898;4.902;2022-10-16T12:03:17;22.00;99.90
20654;DHT22;21083;50.898;4.902;2022-10-16T12:06:06;21.90;99.90
20654;DHT22;21083;50.898;4.902;2022-10-16T12:08:38;21.80;99.90
20654;DHT22;21083;50.898;4.902;2022-10-16T12:11:09;21.60;99.90
20654;DHT22;21083;50.898;4.902;2022-10-16T12:13:47;21.50;99.90
20654;DHT22;21083;50.898;4.902;2022-10-16T12:16:22;21.40;99.90
20654;DHT22;21083;50.898;4.902;2022-10-16T12:19:03;21.40;99.90
20654;DHT22;21083;50.898;4.902;2022-10-16T12:21:37;21.40;99.90
20654;DHT22;21083;50.898;4.902;2022-10-16T12:24:05;21.50;99.90
20654;DHT22;21083;50.898;4.902;2022-10-16T12:26:33;21.60;99.90
20654;DHT22;21083;50.898;4.902;2022-10-16T12:29:13;21.80;99.90
20654;DHT22;21083;50.898;4.902;2022-10-16T12:31:44;22.00;99.90
20654;DHT22;21083;50.898;4.902;2022-10-16T12:34:20;22.00;99.90
20654;DHT22;21083;50.898;4.902;2022-10-16T12:36:50;22.00;99.90
20654;DHT22;21083;50.898;4.902;2022-10-16T12:39:21;22.10;99.90
20654;DHT22;21083;50.898;4.902;2022-10-16T12:42:00;22.10;99.90
20654;DHT22;21083;50.898;4.902;2022-10-16T12:44:33;21.70;99.90
20654;DHT22;21083;50.898;4.902;2022-10-16T12:47:00;21.50;99.90
20654;DHT22;21083;50.898;4.902;2022-10-16T12:49:31;21.10;99.90
20654;DHT22;21083;50.898;4.902;2022-10-16T12:52:02;21.00;99.90
20654;DHT22;21083;50.898;4.902;2022-10-16T12:54:36;21.10;99.90
20654;DHT22;21083;50.898;4.902;2022-10-16T12:57:24;21.00;99.90
20654;DHT22;21083;50.898;4.902;2022-10-16T13:00:03;21.00;99.90
20654;DHT22;21083;50.898;4.902;2022-10-16T13:02:57;21.00;99.90
20654;DHT22;21083;50.898;4.902;2022-10-16T13:05:35;21.20;99.90
20654;DHT22;21083;50.898;4.902;2022-10-16T13:08:21;21.20;99.90
20654;DHT22;21083;50.898;4.902;2022-10-16T13:11:00;21.10;99.90
20654;DHT22;21083;50.898;4.902;2022-10-16T13:13:57;21.10;99.90
20654;DHT22;21083;50.898;4.902;2022-10-16T13:16:33;21.00;99.90
20654;DHT22;21083;50.898;4.902;2022-10-16T13:19:14;20.90;99.90
20654;DHT22;21083;50.898;4.902;2022-10-16T13:21:48;21.00;99.90
20654;DHT22;21083;50.898;4.902;2022-10-16T13:24:27;21.10;99.90
20654;DHT22;21083;50.898;4.902;2022-10-16T13:27:05;21.20;99.90
20654;DHT22;21083;50.898;4.902;2022-10-16T13:29:34;21.30;99.90
20654;DHT22;21083;50.898;4.902;2022-10-16T13:32:06;21.30;99.90
20654;DHT22;21083;50.898;4.902;2022-10-16T13:34:43;21.20;99.90
20654;DHT22;21083;50.898;4.902;2022-10-16T13:37:17;21.30;99.90
20654;DHT22;21083;50.898;4.902;2022-10-16T13:39:46;21.40;99.90
20654;DHT22;21083;50.898;4.902;2022-10-16T13:42:15;21.30;99.90
20654;DHT22;21083;50.898;4.902;2022-10-16T13:44:45;21.40;99.90
20654;DHT22;21083;50.898;4.902;2022-10-16T13:47:18;21.30;99.90
20654;DHT22;21083;50.898;4.902;2022-10-16T13:49:45;21.30;99.90
20654;DHT22;21083;50.898;4.902;2022-10-16T13:52:18;21.30;99.90
20654;DHT22;21083;50.898;4.902;2022-10-16T13:54:47;21.40;99.90
20654;DHT22;21083;50.898;4.902;2022-10-16T13:57:14;21.70;99.90
20654;DHT22;21083;50.898;4.902;2022-10-16T13:59:41;21.90;99.90
20654;DHT22;21083;50.898;4.902;2022-10-16T14:02:18;22.00;99.90
20654;DHT22;21083;50.898;4.902;2022-10-16T14:04:46;21.90;99.90
20654;DHT22;21083;50.898;4.902;2022-10-16T14:07:16;21.80;99.90
20654;DHT22;21083;50.898;4.902;2022-10-16T14:09:49;21.60;99.90
20654;DHT22;21083;50.898;4.902;2022-10-16T14:12:16;21.50;99.90
20654;DHT22;21083;50.898;4.902;2022-10-16T14:14:45;21.40;99.90
20654;DHT22;21083;50.898;4.902;2022-10-16T14:17:18;21.20;99.90
20654;DHT22;21083;50.898;4.902;2022-10-16T14:19:46;21.30;99.90
20654;DHT22;21083;50.898;4.902;2022-10-16T14:22:28;21.40;99.90
20654;DHT22;21083;50.898;4.902;2022-10-16T14:24:57;21.50;99.90
20654;DHT22;21083;50.898;4.902;2022-10-16T14:27:29;21.30;99.90
20654;DHT22;21083;50.898;4.902;2022-10-16T14:30:16;21.30;99.90
20654;DHT22;21083;50.898;4.902;2022-10-16T14:32:53;21.40;99.90
20654;DHT22;21083;50.898;4.902;2022-10-16T14:35:26;21.30;99.90
20654;DHT22;21083;50.898;4.902;2022-10-16T14:37:54;21.30;99.90
20654;DHT22;21083;50.898;4.902;2022-10-16T14:40:25;21.20;99.90
20654;DHT22;21083;50.898;4.902;2022-10-16T14:42:53;21.30;99.90
20654;DHT22;21083;50.898;4.902;2022-10-16T14:45:21;21.20;99.90
20654;DHT22;21083;50.898;4.902;2022-10-16T14:47:50;21.20;99.90
20654;DHT22;21083;50.898;4.902;2022-10-16T14:50:18;21.20;99.90
20654;DHT22;21083;50.898;4.902;2022-10-16T14:52:45;21.30;99.90
20654;DHT22;21083;50.898;4.902;2022-10-16T14:55:12;21.20;99.90
20654;DHT22;21083;50.898;4.902;2022-10-16T14:57:40;21.20;99.90
20654;DHT22;21083;50.898;4.902;2022-10-16T15:00:15;21.30;99.90
20654;DHT22;21083;50.898;4.902;2022-10-16T15:02:43;21.30;99.90
20654;DHT22;21083;50.898;4.902;2022-10-16T15:05:15;21.40;99.90
20654;DHT22;21083;50.898;4.902;2022-10-16T15:07:42;21.30;99.90
20654;DHT22;21083;50.898;4.902;2022-10-16T15:10:10;21.30;99.90
20654;DHT22;21083;50.898;4.902;2022-10-16T15:12:36;21.20;99.90
20654;DHT22;21083;50.898;4.902;2022-10-16T15:15:21;21.10;99.90
20654;DHT22;21083;50.898;4.902;2022-10-16T15:17:50;21.10;99.90
20654;DHT22;21083;50.898;4.902;2022-10-16T15:20:18;20.90;99.90
20654;DHT22;21083;50.898;4.902;2022-10-16T15:22:45;20.80;99.90
20654;DHT22;21083;50.898;4.902;2022-10-16T15:25:26;20.80;99.90
20654;DHT22;21083;50.898;4.902;2022-10-16T15:27:54;20.60;99.90
20654;DHT22;21083;50.898;4.902;2022-10-16T15:30:22;20.50;99.90
20654;DHT22;21083;50.898;4.902;2022-10-16T15:32:49;20.50;99.90
20654;DHT22;21083;50.898;4.902;2022-10-16T15:35:16;20.40;99.90
20654;DHT22;21083;50.898;4.902;2022-10-16T15:37:43;20.40;99.90
20654;DHT22;21083;50.898;4.902;2022-10-16T15:40:10;20.40;99.90
20654;DHT22;21083;50.898;4.902;2022-10-16T15:42:37;20.20;99.90
20654;DHT22;21083;50.898;4.902;2022-10-16T15:45:05;20.20;99.90
20654;DHT22;21083;50.898;4.902;2022-10-16T15:47:34;20.20;99.90
20654;DHT22;21083;50.898;4.902;2022-10-16T15:50:00;20.20;99.90
20654;DHT22;21083;50.898;4.902;2022-10-16T15:52:27;20.20;99.90
20654;DHT22;21083;50.898;4.902;2022-10-16T15:54:57;20.10;99.90